Terminal Aerodrome Forecast
Issued by NWS

Home | Current Version | Previous Version | Text Only | Print | Product List | Glossary On
Versions: 1 2 3 4 5 6 7 8 9 10 11 12 13 14
000
FTUS45 KSLC 241120
TAFSGU
TAF
KSGU 241120Z 2412/2512 VRB05KT P6SM SCT200
     FM241800 25016G24KT P6SM SCT120 BKN200
     FM250200 32011KT P6SM SCT080 BKN120=

USA.gov is the U.S. government's official web portal to all federal, state and local government web resources and services.